map of TBO home
TBO - Airport
Location
City:  Tabora, Tabora, Tanzania
Name:Tabora Airport
ICAO:HTTB
IATA:TBO

Details
Type:Airport (Aerodrome, Airfield)
Latitude:504'35"S (-5.076388)
Longitude:3250'00"E (32.833333)
Elevation:3868 ft (1179 m)
Variation:0.04E (WMM2015v2 magnetic declination)
0.03 annual change
Runways:2
Longest:8399 × 141 ft (2560 × 43 m)

Time
Time Zone:UTC+3
Local Time:

Weather
METAR:HTTB 041300Z 09004KT 9999 SCT024 FEW025CB BKN250 29/19 Q1014
TAF:HTTB 040500Z 0406/0506 00000KT 9999 FEW019 SCT080

Related Locations
Nearby:
Farthest:CXI: 11714 mi / 18853 km
Christmas Island (Kiritimati) [Cassidy Intl], L, KI

Find:

   beyond  
but within

Other Information
Maps:
NOTAMs:
Links:
Sources:

  
  • flag of Tanzania
  

Sectional Chart

Flight Planning
at skyvector.com

Satellite Image

Google Maps Satellite view

 

Copyright © 2004-2019 Karl L. Swartz. All rights reserved.
The Great Circle Mapper name and logo are trademarks of the Great Circle Mapper.
All other trademarks mentioned herein belong to their respective owners.
Please see credits for attibutions and further copyright information.

  Follow gcmap on Facebook Follow gcmap on Twitter GCmap on LinkedIn

hCard Microformat

Geo Microformat